createdAt,value
2019-05-30T00:04:27.222Z,63.20
2019-05-30T00:09:36.025Z,63.40
2019-05-30T00:14:44.857Z,63.60
2019-05-30T00:19:54.833Z,63.30
2019-05-30T00:25:02.596Z,64.00
2019-05-30T00:30:24.026Z,64.30
2019-05-30T00:35:20.233Z,64.30
2019-05-30T00:40:29.021Z,64.10
2019-05-30T00:45:37.763Z,63.90
2019-05-30T00:50:46.585Z,64.30
2019-05-30T00:55:56.688Z,64.00
2019-05-30T01:01:05.162Z,63.80
2019-05-30T01:06:13.299Z,63.20
2019-05-30T01:11:22.232Z,63.60
2019-05-30T01:16:31.324Z,63.40
2019-05-30T01:21:40.143Z,63.80
2019-05-30T01:26:48.991Z,63.90
2019-05-30T01:31:58.035Z,64.10
2019-05-30T01:37:07.875Z,63.80
2019-05-30T01:42:15.902Z,63.70
2019-05-30T01:47:25.008Z,63.30
2019-05-30T01:52:33.678Z,63.60
2019-05-30T01:57:42.452Z,63.60
2019-05-30T02:02:51.375Z,63.60
2019-05-30T02:08:03.146Z,63.70
2019-05-30T02:13:11.727Z,64.20
2019-05-30T02:18:20.506Z,64.20
2019-05-30T02:23:29.331Z,64.30
2019-05-30T02:28:38.090Z,64.00
2019-05-30T02:33:46.666Z,63.40
2019-05-30T02:38:55.390Z,63.40
2019-05-30T02:44:05.508Z,63.60
2019-05-30T02:49:13.820Z,63.40
2019-05-30T02:54:21.987Z,63.60
2019-05-30T02:59:30.820Z,63.30
2019-05-30T03:04:39.582Z,63.60
2019-05-30T03:09:48.600Z,63.30
2019-05-30T03:14:57.362Z,64.20
2019-05-30T03:20:14.728Z,64.10
2019-05-30T03:25:16.099Z,63.80
2019-05-30T03:30:28.142Z,64.20
2019-05-30T03:35:41.121Z,64.30
2019-05-30T03:40:41.848Z,64.30
2019-05-30T03:45:50.664Z,64.70
2019-05-30T03:50:59.656Z,64.60
2019-05-30T03:56:09.937Z,64.30
2019-05-30T04:01:21.668Z,64.40
2019-05-30T04:06:31.407Z,64.90
2019-05-30T04:11:42.876Z,64.40
2019-05-30T04:16:51.533Z,64.40
2019-05-30T04:22:00.373Z,64.80
2019-05-30T04:27:09.899Z,64.90
2019-05-30T04:32:18.668Z,64.90
2019-05-30T04:37:26.814Z,65.20
2019-05-30T04:42:35.713Z,65.10
2019-05-30T04:47:44.442Z,65.30
2019-05-30T04:52:53.321Z,64.90
2019-05-30T04:58:02.174Z,64.90
2019-05-30T05:03:11.300Z,64.80
2019-05-30T05:08:20.197Z,64.90
2019-05-30T05:13:28.900Z,64.80
2019-05-30T05:18:37.716Z,64.60
2019-05-30T05:23:46.479Z,65.20
2019-05-30T05:28:55.460Z,65.10
2019-05-30T05:34:04.375Z,65.10
2019-05-30T05:39:13.135Z,64.30
2019-05-30T05:44:22.452Z,64.80
2019-05-30T05:49:30.691Z,64.30
2019-05-30T05:54:39.508Z,64.50
2019-05-30T05:59:48.956Z,63.90
2019-05-30T06:04:57.724Z,63.80
2019-05-30T06:10:06.520Z,63.70
2019-05-30T06:15:16.772Z,64.70
2019-05-30T06:20:25.352Z,64.30
2019-05-30T06:25:33.237Z,63.30
2019-05-30T06:30:42.124Z,63.90
2019-05-30T06:35:51.032Z,63.80
2019-05-30T06:40:59.878Z,63.80
2019-05-30T06:46:08.824Z,63.10
2019-05-30T06:51:17.529Z,62.50
2019-05-30T06:56:27.447Z,63.30
2019-05-30T07:01:35.251Z,63.60
2019-05-30T07:06:44.243Z,62.30
2019-05-30T07:11:52.914Z,61.90
2019-05-30T07:17:01.711Z,61.10
2019-05-30T07:22:10.524Z,60.80
2019-05-30T07:27:19.409Z,59.50
2019-05-30T07:32:28.202Z,58.10
2019-05-30T07:37:37.001Z,59.20
2019-05-30T07:42:45.879Z,57.10
2019-05-30T07:47:54.687Z,57.20
2019-05-30T07:53:03.581Z,56.40
2019-05-30T07:58:12.529Z,54.70
2019-05-30T08:03:21.259Z,56.20
2019-05-30T08:08:29.855Z,52.60
2019-05-30T08:13:38.639Z,55.10
2019-05-30T08:18:47.219Z,55.80
2019-05-30T08:23:56.057Z,54.00
2019-05-30T08:29:04.750Z,53.70
2019-05-30T08:34:13.443Z,52.30
2019-05-30T08:39:22.312Z,51.10
2019-05-30T08:44:31.627Z,51.30
2019-05-30T08:49:40.377Z,49.70
2019-05-30T08:54:49.054Z,47.80
2019-05-30T08:59:57.917Z,48.50
2019-05-30T09:05:07.229Z,47.30
2019-05-30T09:10:15.722Z,44.30
2019-05-30T09:15:24.538Z,44.90
2019-05-30T09:20:33.418Z,46.00
2019-05-30T09:25:43.540Z,49.60
2019-05-30T09:30:51.517Z,48.50
2019-05-30T09:36:12.797Z,46.60
2019-05-30T09:41:09.178Z,44.00
2019-05-30T09:46:18.096Z,41.00
2019-05-30T09:51:26.960Z,45.90
2019-05-30T09:56:35.740Z,47.80
2019-05-30T10:01:45.998Z,44.00
2019-05-30T10:06:53.474Z,44.30
2019-05-30T10:12:02.426Z,43.70
2019-05-30T10:17:11.352Z,42.40
2019-05-30T10:22:20.199Z,43.30
2019-05-30T10:27:29.719Z,43.50
2019-05-30T10:32:38.602Z,42.40
2019-05-30T10:37:48.943Z,44.40
2019-05-30T10:42:56.892Z,41.60
2019-05-30T10:48:05.376Z,38.30
2019-05-30T10:53:14.211Z,38.90
2019-05-30T10:58:23.250Z,38.20
2019-05-30T11:03:32.004Z,35.80
2019-05-30T11:08:41.112Z,36.70
2019-05-30T11:13:51.111Z,35.40
2019-05-30T11:18:58.841Z,37.60
2019-05-30T11:24:07.850Z,38.60
2019-05-30T11:29:16.752Z,34.60
2019-05-30T11:34:25.455Z,32.80
2019-05-30T11:39:34.259Z,35.00
2019-05-30T11:44:43.066Z,33.00
2019-05-30T11:49:51.869Z,31.70
2019-05-30T11:55:00.499Z,31.90
2019-05-30T12:00:09.411Z,32.70
2019-05-30T12:05:18.144Z,36.30
2019-05-30T12:10:26.987Z,38.30
2019-05-30T12:15:35.796Z,38.50
2019-05-30T12:20:44.770Z,34.90
2019-05-30T12:25:53.956Z,38.40
2019-05-30T12:31:06.280Z,38.10
2019-05-30T12:36:11.295Z,38.00
2019-05-30T12:41:20.145Z,34.10
2019-05-30T12:46:28.954Z,34.00
2019-05-30T12:51:37.872Z,32.00
2019-05-30T12:56:46.551Z,30.60
2019-05-30T13:01:55.285Z,28.90
2019-05-30T13:07:04.163Z,29.10
2019-05-30T13:12:12.885Z,30.60
2019-05-30T13:17:21.806Z,29.20
2019-05-30T13:22:30.623Z,27.70
2019-05-30T13:27:39.387Z,27.70
2019-05-30T13:32:48.195Z,27.20
2019-05-30T13:37:57.147Z,27.50
2019-05-30T13:43:06.108Z,27.00
2019-05-30T13:48:14.687Z,27.00
2019-05-30T13:53:23.438Z,25.50
2019-05-30T13:58:32.422Z,26.40
2019-05-30T14:03:41.219Z,26.80
2019-05-30T14:08:50.802Z,26.20
2019-05-30T14:13:58.906Z,25.20
2019-05-30T14:19:10.843Z,26.80
2019-05-30T14:24:16.644Z,28.30
2019-05-30T14:29:27.951Z,25.80
2019-05-30T14:34:34.314Z,26.40
2019-05-30T14:39:44.338Z,26.70
2019-05-30T14:44:53.114Z,27.90
2019-05-30T14:50:01.940Z,28.00
2019-05-30T14:55:11.177Z,28.90
2019-05-30T15:00:19.938Z,28.90
2019-05-30T15:05:28.726Z,30.30
2019-05-30T15:10:37.543Z,30.20
2019-05-30T15:15:46.306Z,29.30
2019-05-30T15:20:55.158Z,31.40
2019-05-30T15:26:04.371Z,30.90
2019-05-30T15:31:13.007Z,30.10
2019-05-30T15:36:21.891Z,29.60
2019-05-30T15:41:30.877Z,29.70
2019-05-30T15:46:39.752Z,30.80
2019-05-30T15:51:48.755Z,30.20
2019-05-30T15:56:57.489Z,29.70
2019-05-30T16:02:06.338Z,29.60
2019-05-30T16:07:15.087Z,28.40
2019-05-30T16:12:24.030Z,30.70
2019-05-30T16:17:32.864Z,29.60
2019-05-30T16:22:42.260Z,30.30
2019-05-30T16:27:51.069Z,30.60
2019-05-30T16:32:59.954Z,31.20
2019-05-30T16:38:08.846Z,32.20
2019-05-30T16:43:18.193Z,29.00
2019-05-30T16:48:26.729Z,28.60
2019-05-30T16:53:35.323Z,29.90
2019-05-30T16:58:44.188Z,29.50
2019-05-30T17:03:53.139Z,29.60
2019-05-30T17:09:02.021Z,27.10
2019-05-30T17:14:10.934Z,30.90
2019-05-30T17:19:20.371Z,29.70
2019-05-30T17:24:28.550Z,30.50
2019-05-30T17:29:37.463Z,30.80
2019-05-30T17:34:46.358Z,31.80
2019-05-30T17:39:55.191Z,31.50
2019-05-30T17:45:06.043Z,32.70
2019-05-30T17:50:14.985Z,32.90
2019-05-30T17:55:23.980Z,31.10
2019-05-30T18:00:33.233Z,31.70
2019-05-30T18:05:42.033Z,32.10
2019-05-30T18:10:53.861Z,33.20
2019-05-30T18:15:59.965Z,32.80
2019-05-30T18:21:08.766Z,33.20
2019-05-30T18:26:17.672Z,34.30
2019-05-30T18:31:26.504Z,34.40
2019-05-30T18:36:35.490Z,35.50
2019-05-30T18:41:44.268Z,35.00
2019-05-30T18:46:53.056Z,35.60
2019-05-30T18:52:01.939Z,35.50
2019-05-30T18:57:10.700Z,36.30
2019-05-30T19:02:19.733Z,37.00
2019-05-30T19:07:28.801Z,38.40
2019-05-30T19:12:37.650Z,38.30
2019-05-30T19:17:46.530Z,39.20
2019-05-30T19:22:55.298Z,39.70
2019-05-30T19:28:04.275Z,40.60
2019-05-30T19:33:13.066Z,41.10
2019-05-30T19:38:21.856Z,41.80
2019-05-30T19:43:31.764Z,42.40
2019-05-30T19:48:39.655Z,42.60
2019-05-30T19:53:48.391Z,43.50
2019-05-30T19:58:57.145Z,43.60
2019-05-30T20:04:05.875Z,43.80
2019-05-30T20:09:14.692Z,44.50
2019-05-30T20:14:23.622Z,44.10
2019-05-30T20:19:33.470Z,44.60
2019-05-30T20:24:42.600Z,45.70
2019-05-30T20:29:50.303Z,45.00
2019-05-30T20:34:59.106Z,44.80
2019-05-30T20:40:08.028Z,45.20
2019-05-30T20:45:16.918Z,45.40
2019-05-30T20:50:25.940Z,46.20
2019-05-30T20:55:34.605Z,47.20
2019-05-30T21:00:43.862Z,48.50
2019-05-30T21:05:52.325Z,49.50
2019-05-30T21:11:01.119Z,49.60
2019-05-30T21:16:09.960Z,49.70
2019-05-30T21:21:18.787Z,50.20
2019-05-30T21:26:27.714Z,50.50
2019-05-30T21:31:37.273Z,51.00
2019-05-30T21:36:46.015Z,51.10
2019-05-30T21:41:54.240Z,51.70
2019-05-30T21:47:02.952Z,52.00
2019-05-30T21:52:11.806Z,51.70
2019-05-30T21:57:20.530Z,52.10
2019-05-30T22:02:29.455Z,51.50
2019-05-30T22:07:38.340Z,51.80
2019-05-30T22:12:47.566Z,52.80
2019-05-30T22:17:56.685Z,53.10
2019-05-30T22:23:05.605Z,52.80
2019-05-30T22:28:14.313Z,52.50
2019-05-30T22:33:23.177Z,52.60
2019-05-30T22:38:32.061Z,52.40
2019-05-30T22:43:40.803Z,52.70
2019-05-30T22:48:50.525Z,52.90
2019-05-30T22:53:58.602Z,54.40
2019-05-30T22:59:07.342Z,54.50
2019-05-30T23:04:16.274Z,54.60
2019-05-30T23:09:25.110Z,53.50
2019-05-30T23:14:33.916Z,53.90
2019-05-30T23:19:42.728Z,53.40
2019-05-30T23:24:52.315Z,52.00
2019-05-30T23:30:00.397Z,51.90
2019-05-30T23:35:09.454Z,52.00
2019-05-30T23:40:18.316Z,52.00
2019-05-30T23:45:27.036Z,52.50
2019-05-30T23:50:35.664Z,52.60
2019-05-30T23:55:44.322Z,52.70
